createdAt,value
2022-08-12T00:00:09.545Z,95380.66
2022-08-12T00:02:56.630Z,95372.91
2022-08-12T00:06:03.937Z,95366.72
2022-08-12T00:08:52.202Z,95369.34
2022-08-12T00:11:38.117Z,95377.53
2022-08-12T00:14:24.580Z,95378.97
2022-08-12T00:17:11.169Z,95386.53
2022-08-12T00:19:58.394Z,95379.34
2022-08-12T00:22:44.260Z,95376.53
2022-08-12T00:26:17.618Z,95361.34
2022-08-12T00:28:36.183Z,95381.00
2022-08-12T00:31:22.202Z,95372.00
2022-08-12T00:34:07.731Z,95376.59
2022-08-12T00:36:57.470Z,95365.81
2022-08-12T00:39:48.539Z,95363.56
2022-08-12T00:42:20.058Z,95367.84
2022-08-12T00:44:50.787Z,95371.22
2022-08-12T00:47:24.053Z,95362.44
2022-08-12T00:49:55.950Z,95371.53
2022-08-12T00:52:26.696Z,95367.94
2022-08-12T00:54:58.423Z,95355.03
2022-08-12T00:57:29.022Z,95359.06
2022-08-12T00:59:59.739Z,95356.38
2022-08-12T01:02:30.219Z,95357.28
2022-08-12T01:05:17.946Z,95355.03
2022-08-12T01:08:06.577Z,95365.69
2022-08-12T01:10:54.829Z,95368.97
2022-08-12T01:13:23.657Z,95340.31
2022-08-12T01:15:54.088Z,95363.56
2022-08-12T01:18:24.565Z,95365.69
2022-08-12T01:21:04.955Z,95360.44
2022-08-12T01:24:22.911Z,95368.41
2022-08-12T01:27:01.465Z,95365.94
2022-08-12T01:29:32.811Z,95368.53
2022-08-12T01:32:08.824Z,95356.16
2022-08-12T01:34:39.672Z,95359.78
2022-08-12T01:37:10.903Z,95305.59
2022-08-12T01:40:34.439Z,95350.75
2022-08-12T01:42:36.094Z,95355.34
2022-08-12T01:45:04.996Z,95360.06
2022-08-12T01:47:43.185Z,95359.41
2022-08-12T01:50:23.134Z,95361.91
2022-08-12T01:52:59.585Z,95354.69
2022-08-12T01:55:30.459Z,95347.97
2022-08-12T01:58:15.761Z,95350.44
2022-08-12T02:00:56.247Z,95347.19
2022-08-12T02:03:58.424Z,95347.03
2022-08-12T02:06:51.630Z,95338.75
2022-08-12T02:09:44.713Z,95322.00
2022-08-12T02:12:28.548Z,95335.59
2022-08-12T02:15:13.134Z,95337.06
2022-08-12T02:17:57.169Z,95311.63
2022-08-12T02:20:48.869Z,95344.00
2022-08-12T02:23:28.211Z,95339.00
2022-08-12T02:26:00.013Z,95341.47
2022-08-12T02:28:29.358Z,95316.53
2022-08-12T02:31:05.247Z,95332.69
2022-08-12T02:33:34.566Z,95331.00
2022-08-12T02:36:03.389Z,95341.72
2022-08-12T02:38:32.499Z,95352.00
2022-08-12T02:41:07.057Z,95346.53
2022-08-12T02:43:41.549Z,95346.69
2022-08-12T02:46:15.125Z,95349.28
2022-08-12T02:48:51.760Z,95353.47
2022-08-12T02:51:24.132Z,95355.31
2022-08-12T02:54:02.967Z,95350.78
2022-08-12T02:56:37.875Z,95313.34
2022-08-12T02:59:12.268Z,95236.09
2022-08-12T03:01:48.188Z,95349.41
2022-08-12T03:04:24.628Z,95351.22
2022-08-12T03:07:02.282Z,95352.63
2022-08-12T03:09:39.840Z,95347.41
2022-08-12T03:12:25.868Z,95351.28
2022-08-12T03:15:06.162Z,95221.38
2022-08-12T03:17:43.758Z,95353.19
2022-08-12T03:20:16.616Z,95346.66
2022-08-12T03:22:45.927Z,95351.97
2022-08-12T03:25:18.230Z,95356.94
2022-08-12T03:27:51.898Z,95351.97
2022-08-12T03:30:22.289Z,95350.09
2022-08-12T03:32:53.358Z,95350.41
2022-08-12T03:35:40.403Z,95354.91
2022-08-12T03:38:12.518Z,95358.19
2022-08-12T03:41:10.772Z,95353.00
2022-08-12T03:44:05.718Z,95356.16
2022-08-12T03:46:55.744Z,95358.19
2022-08-12T03:49:43.935Z,95353.59
2022-08-12T03:52:29.907Z,95358.41
2022-08-12T03:55:15.430Z,95358.97
2022-08-12T03:58:00.911Z,95358.19
2022-08-12T04:00:31.128Z,95336.75
2022-08-12T04:03:01.932Z,95350.22
2022-08-12T04:05:54.677Z,95341.31
2022-08-12T04:08:25.697Z,95352.00
2022-08-12T04:11:12.620Z,95352.56
2022-08-12T04:13:41.605Z,95361.53
2022-08-12T04:16:13.755Z,95328.38
2022-08-12T04:18:42.901Z,95367.03
2022-08-12T04:21:12.795Z,95364.81
2022-08-12T04:23:47.775Z,95375.34
2022-08-12T04:26:17.338Z,95264.91
2022-08-12T04:28:46.099Z,95375.72
2022-08-12T04:31:14.989Z,95371.66
2022-08-12T04:33:44.369Z,95366.19
2022-08-12T04:36:14.363Z,95375.38
2022-08-12T04:38:44.295Z,95327.22
2022-08-12T04:41:13.013Z,95380.28
2022-08-12T04:44:00.065Z,95372.13
2022-08-12T04:46:34.315Z,95372.50
2022-08-12T04:49:03.784Z,95378.00
2022-08-12T04:51:34.648Z,95380.09
2022-08-12T04:54:04.784Z,95369.88
2022-08-12T04:56:35.382Z,95371.19
2022-08-12T04:59:05.585Z,95375.25
2022-08-12T05:01:34.133Z,95346.19
2022-08-12T05:04:03.000Z,95289.22
2022-08-12T05:06:31.415Z,95385.13
2022-08-12T05:09:11.074Z,95388.66
2022-08-12T05:11:52.139Z,95400.97
2022-08-12T05:14:22.727Z,95397.31
2022-08-12T05:16:51.118Z,95393.38
2022-08-12T05:19:22.502Z,95395.53
2022-08-12T05:21:51.253Z,95400.81
2022-08-12T05:24:21.087Z,95402.56
2022-08-12T05:26:49.538Z,95403.81
2022-08-12T05:30:07.198Z,95391.69
2022-08-12T05:32:08.599Z,95403.25
2022-08-12T05:34:37.058Z,95365.84
2022-08-12T05:37:05.718Z,95404.91
2022-08-12T05:39:35.653Z,95400.03
2022-08-12T05:42:04.505Z,95409.81
2022-08-12T05:44:32.897Z,95395.06
2022-08-12T05:47:01.241Z,95387.19
2022-08-12T05:49:29.939Z,95333.38
2022-08-12T05:51:58.504Z,95386.69
2022-08-12T05:54:54.404Z,95386.59
2022-08-12T05:57:17.496Z,95392.91
2022-08-12T05:59:45.889Z,95220.25
2022-08-12T06:02:14.625Z,95392.63
2022-08-12T06:04:43.327Z,95376.16
2022-08-12T06:07:59.969Z,95381.88
2022-08-12T06:10:01.047Z,95369.19
2022-08-12T06:12:30.995Z,95374.06
2022-08-12T06:15:00.287Z,95369.97
2022-08-12T06:17:31.155Z,95380.63
2022-08-12T06:20:25.791Z,95378.72
2022-08-12T06:22:48.901Z,95370.41
2022-08-12T06:25:21.767Z,95375.31
2022-08-12T06:28:06.152Z,95374.31
2022-08-12T06:30:38.996Z,95368.84
2022-08-12T06:33:21.999Z,95373.94
2022-08-12T06:35:51.884Z,95370.41
2022-08-12T06:38:22.231Z,95345.03
2022-08-12T06:41:11.162Z,95324.34
2022-08-12T06:44:06.079Z,95366.31
2022-08-12T06:46:31.624Z,95362.22
2022-08-12T06:49:00.420Z,95351.25
2022-08-12T06:51:31.034Z,95349.69
2022-08-12T06:54:00.142Z,95339.69
2022-08-12T06:56:59.817Z,95342.13
2022-08-12T06:59:21.459Z,95340.00
2022-08-12T07:01:51.681Z,95335.06
2022-08-12T07:04:38.295Z,95333.09
2022-08-12T07:07:08.512Z,95329.47
2022-08-12T07:10:04.421Z,95274.97
2022-08-12T07:12:27.799Z,95310.88
2022-08-12T07:14:59.341Z,95337.06
2022-08-12T07:17:36.519Z,95325.56
2022-08-12T07:20:09.960Z,95329.06
2022-08-12T07:22:39.309Z,95322.31
2022-08-12T07:25:25.822Z,95314.97
2022-08-12T07:27:55.340Z,95319.91
2022-08-12T07:30:25.381Z,95326.13
2022-08-12T07:32:57.434Z,95329.50
2022-08-12T07:35:30.830Z,95283.53
2022-08-12T07:38:00.971Z,95311.31
2022-08-12T07:40:31.045Z,95321.44
2022-08-12T07:42:59.965Z,95317.75
2022-08-12T07:45:29.758Z,95316.94
2022-08-12T07:47:58.058Z,95315.84
2022-08-12T07:50:26.820Z,95298.41
2022-08-12T07:52:55.139Z,95308.66
2022-08-12T07:55:23.674Z,95308.75
2022-08-12T07:57:56.060Z,95311.81
2022-08-12T08:00:24.536Z,95309.16
2022-08-12T08:02:54.742Z,95317.56
2022-08-12T08:05:25.149Z,95313.31
2022-08-12T08:07:56.037Z,95309.63
2022-08-12T08:10:26.345Z,95309.09
2022-08-12T08:12:53.871Z,95308.25
2022-08-12T08:15:38.498Z,95241.81
2022-08-12T08:18:25.825Z,95295.44
2022-08-12T08:20:54.645Z,95255.19
2022-08-12T08:23:34.912Z,95306.16
2022-08-12T08:26:03.727Z,95297.06
2022-08-12T08:28:36.639Z,95275.34
2022-08-12T08:31:05.057Z,95288.97
2022-08-12T08:34:08.994Z,95285.44
2022-08-12T08:36:23.785Z,95279.47
2022-08-12T08:38:57.792Z,95260.72
2022-08-12T08:42:17.737Z,95273.56
2022-08-12T08:44:32.722Z,95276.16
2022-08-12T08:47:02.465Z,95271.06
2022-08-12T08:49:32.519Z,95266.91
2022-08-12T08:52:06.835Z,95257.31
2022-08-12T08:54:37.794Z,95258.81
2022-08-12T08:57:08.357Z,95263.50
2022-08-12T08:59:37.221Z,95258.41
2022-08-12T09:02:07.754Z,95194.97
2022-08-12T09:05:13.407Z,95251.75
2022-08-12T09:10:31.139Z,95246.91
2022-08-12T09:13:23.234Z,95248.03
2022-08-12T09:15:57.784Z,95242.13
2022-08-12T09:18:33.408Z,95158.78
2022-08-12T09:21:18.542Z,95242.81
2022-08-12T09:24:01.293Z,95233.47
2022-08-12T09:26:45.819Z,95219.84
2022-08-12T09:29:15.575Z,95225.75
2022-08-12T09:32:07.183Z,95218.50
2022-08-12T09:34:37.812Z,95220.81
2022-08-12T09:37:19.205Z,95214.34
2022-08-12T09:40:06.050Z,95231.44
2022-08-12T09:43:16.113Z,95223.47
2022-08-12T09:46:19.531Z,95209.34
2022-08-12T09:48:40.010Z,95203.16
2022-08-12T09:51:16.765Z,95199.06
2022-08-12T09:54:06.813Z,95193.03
2022-08-12T09:57:02.215Z,95203.47
2022-08-12T10:00:13.703Z,95197.09
2022-08-12T10:02:52.744Z,95180.91
2022-08-12T10:05:13.813Z,95191.34
2022-08-12T10:07:46.058Z,95190.84
2022-08-12T10:10:24.024Z,95189.06
2022-08-12T10:13:35.230Z,95117.31
2022-08-12T10:16:05.840Z,95188.59
2022-08-12T10:18:36.712Z,95185.03
2022-08-12T10:21:21.267Z,95193.25
2022-08-12T10:23:56.754Z,95190.16
2022-08-12T10:26:44.966Z,95112.06
2022-08-12T10:30:38.975Z,95171.59
2022-08-12T10:32:56.327Z,95186.31
2022-08-12T10:35:10.627Z,95190.09
2022-08-12T10:38:37.801Z,95183.09
2022-08-12T10:40:32.007Z,95171.25
2022-08-12T10:43:19.917Z,95171.19
2022-08-12T10:45:49.609Z,95166.50
2022-08-12T10:48:33.485Z,95161.50
2022-08-12T10:52:04.027Z,95159.81
2022-08-12T10:54:00.344Z,95168.38
2022-08-12T10:56:34.542Z,95163.66
2022-08-12T10:59:10.612Z,95169.50
2022-08-12T11:04:16.847Z,95155.78
2022-08-12T11:04:45.158Z,95167.25
2022-08-12T11:08:33.709Z,95159.03
2022-08-12T11:10:07.810Z,95160.44
2022-08-12T11:12:58.927Z,95152.75
2022-08-12T11:16:03.367Z,95154.16
2022-08-12T11:18:18.295Z,95141.56
2022-08-12T11:20:50.598Z,95139.25
2022-08-12T11:23:25.278Z,95147.16
2022-08-12T11:26:23.297Z,95143.13
2022-08-12T11:28:59.243Z,95141.81
2022-08-12T11:31:40.650Z,95147.59
2022-08-12T11:34:52.841Z,95141.34
2022-08-12T11:37:25.653Z,95145.63
2022-08-12T11:40:01.313Z,95144.22
2022-08-12T11:42:32.504Z,95136.53
2022-08-12T11:45:01.048Z,95141.19
2022-08-12T11:47:30.903Z,95145.66
2022-08-12T11:49:59.223Z,95155.44
2022-08-12T11:52:56.096Z,95146.06
2022-08-12T11:55:16.204Z,95134.31
2022-08-12T11:57:52.555Z,95144.50
2022-08-12T12:03:43.769Z,95148.78
2022-08-12T12:06:16.806Z,95150.34
2022-08-12T12:08:51.064Z,95148.38
2022-08-12T12:11:21.867Z,95149.19
2022-08-12T12:14:07.631Z,95162.06
2022-08-12T12:16:40.114Z,95172.13
2022-08-12T12:19:19.274Z,95165.47
2022-08-12T12:21:49.543Z,95168.22
2022-08-12T12:24:21.641Z,95165.38
2022-08-12T12:26:59.519Z,95158.03
2022-08-12T12:30:17.722Z,95172.56
2022-08-12T12:32:18.771Z,95160.34
2022-08-12T12:35:13.797Z,95163.50
2022-08-12T12:38:04.688Z,95159.81
2022-08-12T12:40:35.380Z,95147.13
2022-08-12T12:43:08.875Z,95146.94
2022-08-12T12:45:44.607Z,95083.59
2022-08-12T12:48:15.988Z,95151.47
2022-08-12T12:50:51.804Z,95143.88
2022-08-12T12:54:06.599Z,95080.28
2022-08-12T12:56:15.847Z,95142.69
2022-08-12T12:58:44.610Z,95146.97
2022-08-12T13:01:26.734Z,95152.03
2022-08-12T13:04:02.284Z,95144.97
2022-08-12T13:06:32.645Z,95136.34
2022-08-12T13:09:03.903Z,95161.38
2022-08-12T13:11:41.592Z,95150.84
2022-08-12T13:14:29.416Z,95157.94
2022-08-12T13:17:02.647Z,95072.81
2022-08-12T13:19:45.204Z,95164.53
2022-08-12T13:22:21.267Z,95162.59
2022-08-12T13:24:54.707Z,95170.31
2022-08-12T13:27:28.235Z,95119.50
2022-08-12T13:30:06.589Z,95166.94
2022-08-12T13:32:35.487Z,95159.41
2022-08-12T13:35:20.229Z,95170.16
2022-08-12T13:37:55.817Z,95172.94
2022-08-12T13:40:25.480Z,95177.91
2022-08-12T13:42:57.881Z,95174.66
2022-08-12T13:45:27.125Z,95163.50
2022-08-12T13:48:00.147Z,95189.88
2022-08-12T13:50:32.610Z,95188.41
2022-08-12T13:53:06.123Z,95180.25
2022-08-12T13:55:59.474Z,95115.03
2022-08-12T13:58:34.685Z,95184.91
2022-08-12T14:01:06.507Z,95183.97
2022-08-12T14:03:51.544Z,95189.38
2022-08-12T14:06:20.540Z,95210.28
2022-08-12T14:08:50.903Z,95200.16
2022-08-12T14:11:25.371Z,95201.84
2022-08-12T14:14:03.229Z,95207.75
2022-08-12T14:16:48.879Z,95212.38
2022-08-12T14:19:24.847Z,95153.72
2022-08-12T14:21:59.544Z,95212.09
2022-08-12T14:24:40.464Z,95211.34
2022-08-12T14:27:11.448Z,95117.38
2022-08-12T14:30:05.590Z,95201.25
2022-08-12T14:32:35.686Z,95214.16
2022-08-12T14:35:09.491Z,95217.16
2022-08-12T14:37:56.136Z,95214.41
2022-08-12T14:40:30.047Z,95209.28
2022-08-12T14:42:59.314Z,95207.03
2022-08-12T14:45:44.957Z,95209.47
2022-08-12T14:48:19.709Z,95201.28
2022-08-12T14:52:16.247Z,95188.28
2022-08-12T14:54:55.959Z,95203.53
2022-08-12T14:59:57.068Z,95181.84
2022-08-12T15:02:28.747Z,95197.97
2022-08-12T15:04:59.730Z,95192.53
2022-08-12T15:07:34.035Z,95192.53
2022-08-12T15:10:31.274Z,95182.28
2022-08-12T15:13:07.400Z,95193.22
2022-08-12T15:15:43.962Z,95103.06
2022-08-12T15:18:21.796Z,95183.78
2022-08-12T15:20:52.497Z,95184.06
2022-08-12T15:23:23.987Z,95173.03
2022-08-12T15:26:03.059Z,95187.16
2022-08-12T15:28:35.876Z,95105.28
2022-08-12T15:31:21.319Z,95181.66
2022-08-12T15:33:57.440Z,95179.06
2022-08-12T15:36:53.542Z,95156.69
2022-08-12T15:39:16.849Z,95174.03
2022-08-12T15:41:50.088Z,95187.22
2022-08-12T15:44:38.654Z,95181.53
2022-08-12T15:47:09.313Z,95188.94
2022-08-12T15:49:54.676Z,95185.72
2022-08-12T15:52:29.130Z,95186.31
2022-08-12T15:55:06.508Z,95149.81
2022-08-12T15:57:41.617Z,95184.75
2022-08-12T16:00:22.269Z,95180.81
2022-08-12T16:03:05.632Z,95096.09
2022-08-12T16:06:13.249Z,95127.78
2022-08-12T16:08:27.497Z,95189.47
2022-08-12T16:10:56.777Z,95190.69
2022-08-12T16:13:34.438Z,95124.09
2022-08-12T16:16:22.771Z,95161.84
2022-08-12T16:18:59.557Z,95186.22
2022-08-12T16:21:50.414Z,95184.63
2022-08-12T16:24:20.671Z,95182.53
2022-08-12T16:26:51.369Z,95185.09
2022-08-12T16:29:26.580Z,95190.47
2022-08-12T16:32:08.788Z,95190.66
2022-08-12T16:34:54.862Z,95149.44
2022-08-12T16:38:05.011Z,95202.19
2022-08-12T16:40:14.533Z,95182.00
2022-08-12T16:42:53.349Z,95186.31
2022-08-12T16:45:32.233Z,95190.41
2022-08-12T16:48:34.072Z,95190.34
2022-08-12T16:51:09.393Z,95194.75
2022-08-12T16:53:43.812Z,95180.97
2022-08-12T16:56:16.886Z,95182.72
2022-08-12T16:58:48.249Z,95179.22
2022-08-12T17:01:16.865Z,95154.81
2022-08-12T17:04:04.650Z,95176.63
2022-08-12T17:06:41.729Z,95184.28
2022-08-12T17:09:17.062Z,95129.28
2022-08-12T17:11:49.361Z,95186.16
2022-08-12T17:14:23.102Z,95188.81
2022-08-12T17:16:52.902Z,95186.44
2022-08-12T17:20:30.317Z,95196.97
2022-08-12T17:22:16.691Z,95188.94
2022-08-12T17:24:55.866Z,95147.03
2022-08-12T17:27:26.346Z,95189.44
2022-08-12T17:30:03.174Z,95074.88
2022-08-12T17:32:37.049Z,95199.19
2022-08-12T17:35:29.930Z,95169.09
2022-08-12T17:38:06.765Z,95200.09
2022-08-12T17:40:37.175Z,95197.16
2022-08-12T17:43:57.239Z,95183.53
2022-08-12T17:45:59.776Z,95195.69
2022-08-12T17:48:34.791Z,95154.41
2022-08-12T17:51:16.014Z,95208.72
2022-08-12T17:54:10.691Z,95132.88
2022-08-12T17:56:37.555Z,95189.97
2022-08-12T17:59:07.704Z,95210.22
2022-08-12T18:01:36.841Z,95224.63
2022-08-12T18:04:21.579Z,95224.34
2022-08-12T18:06:54.077Z,95220.22
2022-08-12T18:09:32.147Z,95219.59
2022-08-12T18:12:24.852Z,95218.41
2022-08-12T18:14:58.546Z,95198.72
2022-08-12T18:17:28.190Z,95186.72
2022-08-12T18:20:05.872Z,95217.72
2022-08-12T18:22:38.678Z,95212.47
2022-08-12T18:26:13.081Z,95206.31
2022-08-12T18:28:15.562Z,95212.84
2022-08-12T18:30:52.173Z,95215.81
2022-08-12T18:33:25.644Z,95177.91
2022-08-12T18:35:56.936Z,95216.38
2022-08-12T18:38:28.133Z,95216.94
2022-08-12T18:41:21.917Z,95224.00
2022-08-12T18:43:59.792Z,95209.78
2022-08-12T18:46:47.523Z,95215.28
2022-08-12T18:49:23.620Z,95180.41
2022-08-12T18:52:02.458Z,95208.47
2022-08-12T18:54:36.193Z,95223.00
2022-08-12T18:57:19.285Z,95229.63
2022-08-12T19:00:06.469Z,95231.78
2022-08-12T19:02:40.450Z,95230.75
2022-08-12T19:05:11.942Z,95234.13
2022-08-12T19:07:58.035Z,95175.72
2022-08-12T19:10:33.018Z,95229.81
2022-08-12T19:13:23.646Z,95227.06
2022-08-12T19:15:54.788Z,95226.47
2022-08-12T19:18:29.891Z,95228.34
2022-08-12T19:21:06.437Z,95222.06
2022-08-12T19:23:40.365Z,95217.38
2022-08-12T19:26:12.419Z,95178.16
2022-08-12T19:28:42.625Z,95215.13
2022-08-12T19:31:57.361Z,95204.84
2022-08-12T19:37:20.321Z,95213.19
2022-08-12T19:40:09.976Z,95213.69
2022-08-12T19:42:48.209Z,95203.34
2022-08-12T19:45:17.749Z,95195.81
2022-08-12T19:47:46.957Z,95197.41
2022-08-12T19:50:20.332Z,95202.97
2022-08-12T19:52:53.981Z,95195.63
2022-08-12T19:55:25.298Z,95196.63
2022-08-12T19:58:01.815Z,95195.97
2022-08-12T20:00:34.996Z,95199.59
2022-08-12T20:03:05.444Z,95194.06
2022-08-12T20:06:06.898Z,95192.50
2022-08-12T20:08:33.282Z,95181.38
2022-08-12T20:12:11.565Z,95182.09
2022-08-12T20:14:00.212Z,95185.09
2022-08-12T20:16:51.022Z,95178.03
2022-08-12T20:19:17.859Z,95185.97
2022-08-12T20:21:46.545Z,95186.94
2022-08-12T20:24:15.567Z,95205.16
2022-08-12T20:26:44.324Z,95186.81
2022-08-12T20:29:16.329Z,95174.75
2022-08-12T20:31:45.791Z,95176.44
2022-08-12T20:34:20.477Z,95185.97
2022-08-12T20:36:57.135Z,95182.38
2022-08-12T20:39:52.068Z,95178.88
2022-08-12T20:42:23.265Z,95184.47
2022-08-12T20:44:54.305Z,95183.94
2022-08-12T20:47:24.994Z,95187.91
2022-08-12T20:50:11.698Z,95184.34
2022-08-12T20:52:40.313Z,95174.34
2022-08-12T20:55:17.123Z,95175.97
2022-08-12T20:58:02.546Z,95173.34
2022-08-12T21:00:34.975Z,95178.44
2022-08-12T21:03:18.175Z,95173.56
2022-08-12T21:06:12.158Z,95173.72
2022-08-12T21:08:41.702Z,95164.34
2022-08-12T21:11:10.669Z,95176.09
2022-08-12T21:13:42.114Z,95175.16
2022-08-12T21:16:14.085Z,95176.94
2022-08-12T21:18:42.513Z,95182.16
2022-08-12T21:21:24.038Z,95182.91
2022-08-12T21:24:07.673Z,95189.00
2022-08-12T21:26:40.003Z,94968.81
2022-08-12T21:29:10.481Z,95188.06
2022-08-12T21:32:37.362Z,95190.03
2022-08-12T21:34:31.650Z,95186.28
2022-08-12T21:37:01.902Z,95186.19
2022-08-12T21:39:52.349Z,95182.41
2022-08-12T21:42:26.960Z,95177.00
2022-08-12T21:45:46.608Z,95169.31
2022-08-12T21:47:53.400Z,95169.09
2022-08-12T21:50:21.816Z,95178.28
2022-08-12T21:52:57.808Z,95185.16
2022-08-12T21:55:26.995Z,95179.25
2022-08-12T21:58:03.029Z,95181.34
2022-08-12T22:00:35.015Z,95184.72
2022-08-12T22:04:04.219Z,95185.88
2022-08-12T22:06:30.654Z,95185.41
2022-08-12T22:09:16.412Z,95176.41
2022-08-12T22:11:56.311Z,95169.47
2022-08-12T22:14:28.170Z,95170.75
2022-08-12T22:16:58.035Z,95170.00
2022-08-12T22:19:27.905Z,95168.06
2022-08-12T22:21:58.627Z,95168.59
2022-08-12T22:24:30.572Z,95164.59
2022-08-12T22:27:08.379Z,95167.19
2022-08-12T22:30:07.195Z,95164.41
2022-08-12T22:32:38.789Z,95123.66
2022-08-12T22:35:29.442Z,95155.81
2022-08-12T22:38:10.762Z,95151.19
2022-08-12T22:40:40.167Z,95150.25
2022-08-12T22:43:29.698Z,95143.72
2022-08-12T22:46:15.743Z,95140.16
2022-08-12T22:48:50.328Z,95140.69
2022-08-12T22:51:24.154Z,95132.91
2022-08-12T22:53:55.382Z,95133.72
2022-08-12T22:56:30.965Z,95128.13
2022-08-12T22:59:02.612Z,95132.25
2022-08-12T23:01:52.493Z,95127.63
2022-08-12T23:04:26.239Z,95128.59
2022-08-12T23:07:05.156Z,95120.97
2022-08-12T23:09:48.170Z,95121.09
2022-08-12T23:12:41.216Z,95131.09
2022-08-12T23:15:14.029Z,95127.53
2022-08-12T23:17:42.814Z,95116.84
2022-08-12T23:20:13.086Z,95119.84
2022-08-12T23:22:44.055Z,95086.84
2022-08-12T23:25:54.482Z,95131.25
2022-08-12T23:28:37.185Z,95118.03
2022-08-12T23:31:06.431Z,95124.78
2022-08-12T23:34:02.722Z,95122.69
2022-08-12T23:36:39.484Z,95122.16
2022-08-12T23:40:15.706Z,95116.44
2022-08-12T23:42:16.581Z,95109.75
2022-08-12T23:44:48.648Z,95102.25
2022-08-12T23:47:22.967Z,95103.72
2022-08-12T23:49:58.616Z,95109.94
2022-08-12T23:52:34.567Z,95103.66
2022-08-12T23:55:24.955Z,95101.72
2022-08-12T23:58:21.568Z,95099.28
